createdAt,value
2018-03-31T00:01:39.709Z,73.90
2018-03-31T00:04:06.692Z,73.80
2018-03-31T00:06:33.653Z,73.60
2018-03-31T00:09:00.625Z,73.60
2018-03-31T00:11:27.605Z,73.60
2018-03-31T00:13:55.510Z,73.30
2018-03-31T00:16:22.489Z,73.30
2018-03-31T00:18:50.216Z,73.20
2018-03-31T00:21:17.985Z,73.30
2018-03-31T00:23:45.697Z,73.40
2018-03-31T00:26:12.664Z,73.40
2018-03-31T00:28:39.704Z,73.70
2018-03-31T00:31:06.664Z,73.30
2018-03-31T00:33:33.628Z,73.60
2018-03-31T00:36:00.571Z,73.30
2018-03-31T00:38:27.539Z,74.00
2018-03-31T00:40:54.505Z,73.50
2018-03-31T00:43:21.468Z,73.70
2018-03-31T00:45:48.417Z,73.60
2018-03-31T00:48:15.418Z,73.70
2018-03-31T00:50:42.370Z,73.80
2018-03-31T00:53:09.361Z,74.10
2018-03-31T00:55:36.368Z,74.20
2018-03-31T00:58:03.316Z,74.20
2018-03-31T01:00:30.277Z,74.20
2018-03-31T01:02:57.261Z,74.20
2018-03-31T01:05:24.239Z,74.30
2018-03-31T01:07:51.674Z,74.50
2018-03-31T01:10:18.660Z,74.40
2018-03-31T01:12:45.604Z,74.50
2018-03-31T01:15:12.578Z,74.50
2018-03-31T01:17:39.538Z,74.70
2018-03-31T01:20:06.526Z,75.00
2018-03-31T01:22:33.491Z,75.80
2018-03-31T01:25:00.475Z,75.10
2018-03-31T01:27:27.855Z,75.50
2018-03-31T01:29:54.817Z,76.00
2018-03-31T01:32:21.830Z,76.30
2018-03-31T01:34:48.758Z,76.50
2018-03-31T01:37:16.477Z,77.20
2018-03-31T01:39:43.552Z,77.10
2018-03-31T01:42:10.532Z,77.20
2018-03-31T01:44:37.489Z,77.30
2018-03-31T01:47:04.458Z,77.60
2018-03-31T01:49:31.421Z,77.70
2018-03-31T01:51:58.368Z,77.80
2018-03-31T01:54:25.325Z,77.70
2018-03-31T01:56:52.293Z,77.70
2018-03-31T01:59:19.255Z,77.90
2018-03-31T02:01:46.237Z,78.10
2018-03-31T02:04:13.963Z,78.30
2018-03-31T02:06:40.931Z,78.30
2018-03-31T02:09:07.890Z,78.30
2018-03-31T02:11:34.873Z,79.30
2018-03-31T02:14:02.600Z,79.00
2018-03-31T02:16:29.571Z,79.00
2018-03-31T02:18:56.527Z,79.20
2018-03-31T02:21:23.518Z,79.40
2018-03-31T02:23:51.254Z,80.00
2018-03-31T02:26:18.208Z,79.80
2018-03-31T02:28:45.513Z,79.60
2018-03-31T02:31:13.228Z,79.90
2018-03-31T02:33:40.185Z,79.50
2018-03-31T02:36:07.215Z,79.70
2018-03-31T02:38:34.938Z,79.80
2018-03-31T02:41:01.905Z,79.80
2018-03-31T02:43:28.891Z,80.20
2018-03-31T02:45:55.868Z,80.20
2018-03-31T02:48:23.583Z,80.70
2018-03-31T02:50:50.558Z,80.60
2018-03-31T02:53:18.308Z,80.90
2018-03-31T02:55:45.277Z,80.90
2018-03-31T02:58:12.262Z,81.00
2018-03-31T03:00:39.221Z,80.60
2018-03-31T03:03:06.195Z,80.60
2018-03-31T03:05:33.971Z,80.30
2018-03-31T03:08:01.736Z,80.40
2018-03-31T03:10:29.277Z,80.40
2018-03-31T03:12:56.236Z,80.50
2018-03-31T03:15:23.197Z,81.10
2018-03-31T03:17:50.165Z,80.50
2018-03-31T03:20:17.690Z,80.40
2018-03-31T03:22:44.920Z,80.30
2018-03-31T03:25:11.885Z,80.30
2018-03-31T03:27:39.616Z,80.00
2018-03-31T03:30:06.597Z,80.00
2018-03-31T03:32:33.566Z,80.10
2018-03-31T03:35:00.664Z,80.20
2018-03-31T03:37:27.630Z,80.30
2018-03-31T03:39:54.622Z,80.30
2018-03-31T03:42:21.603Z,80.50
2018-03-31T03:44:48.553Z,80.70
2018-03-31T03:47:15.522Z,80.60
2018-03-31T03:49:42.493Z,80.90
2018-03-31T03:52:10.211Z,81.20
2018-03-31T03:54:37.207Z,81.20
2018-03-31T03:57:04.181Z,81.20
2018-03-31T03:59:31.912Z,81.50
2018-03-31T04:01:58.873Z,81.30
2018-03-31T04:04:25.947Z,81.30
2018-03-31T04:06:52.899Z,81.30
2018-03-31T04:09:19.909Z,81.10
2018-03-31T04:11:46.880Z,80.90
2018-03-31T04:14:13.838Z,80.90
2018-03-31T04:16:40.835Z,81.20
2018-03-31T04:19:09.309Z,82.20
2018-03-31T04:21:37.400Z,81.60
2018-03-31T04:24:04.366Z,82.20
2018-03-31T04:26:31.328Z,81.40
2018-03-31T04:28:58.288Z,81.20
2018-03-31T04:31:25.263Z,81.10
2018-03-31T04:33:52.236Z,81.90
2018-03-31T04:36:19.961Z,82.10
2018-03-31T04:38:46.976Z,82.10
2018-03-31T04:41:14.701Z,81.90
2018-03-31T04:43:41.674Z,81.80
2018-03-31T04:46:08.656Z,81.60
2018-03-31T04:48:36.409Z,81.30
2018-03-31T04:51:03.365Z,81.30
2018-03-31T04:53:30.362Z,81.20
2018-03-31T04:55:58.107Z,81.10
2018-03-31T04:58:25.105Z,81.10
2018-03-31T05:00:52.093Z,81.30
2018-03-31T05:03:19.045Z,81.10
2018-03-31T05:05:46.045Z,81.20
2018-03-31T05:08:13.016Z,80.80
2018-03-31T05:10:40.764Z,80.80
2018-03-31T05:13:07.733Z,80.80
2018-03-31T05:15:34.689Z,80.80
2018-03-31T05:18:01.680Z,80.80
2018-03-31T05:20:29.401Z,81.30
2018-03-31T05:22:56.397Z,81.10
2018-03-31T05:25:23.364Z,81.00
2018-03-31T05:27:50.340Z,81.00
2018-03-31T05:30:17.297Z,81.00
2018-03-31T05:32:44.273Z,81.30
2018-03-31T05:35:11.260Z,81.10
2018-03-31T05:37:38.234Z,81.20
2018-03-31T05:40:05.188Z,81.10
2018-03-31T05:42:32.163Z,81.40
2018-03-31T05:44:59.900Z,81.80
2018-03-31T05:47:26.865Z,81.80
2018-03-31T05:49:53.845Z,81.50
2018-03-31T05:52:20.809Z,81.40
2018-03-31T05:54:48.536Z,81.70
2018-03-31T05:57:15.569Z,81.70
2018-03-31T05:59:42.485Z,81.80
2018-03-31T06:02:09.446Z,81.50
2018-03-31T06:04:36.442Z,81.30
2018-03-31T06:07:03.404Z,81.10
2018-03-31T06:09:30.386Z,81.40
2018-03-31T06:11:58.128Z,82.10
2018-03-31T06:14:25.847Z,82.10
2018-03-31T06:16:52.813Z,82.10
2018-03-31T06:19:19.793Z,81.90
2018-03-31T06:21:46.797Z,81.80
2018-03-31T06:24:13.813Z,82.20
2018-03-31T06:26:40.769Z,81.90
2018-03-31T06:29:07.738Z,81.90
2018-03-31T06:31:35.496Z,81.90
2018-03-31T06:34:02.485Z,81.90
2018-03-31T06:36:29.451Z,82.00
2018-03-31T06:38:56.452Z,82.50
2018-03-31T06:41:23.468Z,81.60
2018-03-31T06:43:50.560Z,81.20
2018-03-31T06:46:17.417Z,81.10
2018-03-31T06:48:44.381Z,80.90
2018-03-31T06:51:11.441Z,80.80
2018-03-31T06:53:39.125Z,80.90
2018-03-31T06:56:06.106Z,81.50
2018-03-31T06:58:33.066Z,82.00
2018-03-31T07:01:00.794Z,82.90
2018-03-31T07:03:27.782Z,82.90
2018-03-31T07:05:54.778Z,84.20
2018-03-31T07:08:21.750Z,83.50
2018-03-31T07:10:48.708Z,83.20
2018-03-31T07:13:15.726Z,82.80
2018-03-31T07:15:42.685Z,82.80
2018-03-31T07:18:09.665Z,82.90
2018-03-31T07:20:37.419Z,82.60
2018-03-31T07:23:04.378Z,82.50
2018-03-31T07:25:31.329Z,82.00
2018-03-31T07:27:58.305Z,81.60
2018-03-31T07:30:26.036Z,81.40
2018-03-31T07:32:53.005Z,81.40
2018-03-31T07:35:19.982Z,80.80
2018-03-31T07:37:47.737Z,81.00
2018-03-31T07:40:14.702Z,81.00
2018-03-31T07:42:41.690Z,81.10
2018-03-31T07:45:09.421Z,81.10
2018-03-31T07:47:36.372Z,81.00
2018-03-31T07:50:03.331Z,81.20
2018-03-31T07:52:30.370Z,81.30
2018-03-31T07:54:58.057Z,80.50
2018-03-31T07:57:25.050Z,80.50
2018-03-31T07:59:52.050Z,79.90
2018-03-31T08:02:19.028Z,79.40
2018-03-31T08:04:45.992Z,78.70
2018-03-31T08:07:13.141Z,78.30
2018-03-31T08:09:40.125Z,77.10
2018-03-31T08:12:07.073Z,76.90
2018-03-31T08:14:34.043Z,76.60
2018-03-31T08:17:01.010Z,76.40
2018-03-31T08:19:28.260Z,76.00
2018-03-31T08:21:55.213Z,74.90
2018-03-31T08:24:22.178Z,74.50
2018-03-31T08:26:49.169Z,74.80
2018-03-31T08:29:16.150Z,74.00
2018-03-31T08:31:43.120Z,74.00
2018-03-31T08:34:10.076Z,73.50
2018-03-31T08:36:37.222Z,73.40
2018-03-31T08:39:05.013Z,70.80
2018-03-31T08:41:31.998Z,70.80
2018-03-31T08:43:58.984Z,70.20
2018-03-31T08:46:25.947Z,69.30
2018-03-31T08:48:52.931Z,68.60
2018-03-31T08:51:20.654Z,68.20
2018-03-31T08:53:47.632Z,68.00
2018-03-31T08:56:14.596Z,66.00
2018-03-31T08:58:41.557Z,66.10
2018-03-31T09:01:08.522Z,66.30
2018-03-31T09:03:35.519Z,65.50
2018-03-31T09:06:02.501Z,64.50
2018-03-31T09:08:29.452Z,63.00
2018-03-31T09:10:56.505Z,59.60
2018-03-31T09:26:28.059Z,54.70
2018-03-31T09:28:55.119Z,54.60
2018-03-31T09:31:22.106Z,49.00
2018-03-31T09:33:49.113Z,47.80
2018-03-31T09:36:16.087Z,48.50
2018-03-31T09:38:43.083Z,48.30
2018-03-31T09:41:10.125Z,48.80
2018-03-31T09:43:37.102Z,48.20
2018-03-31T09:46:04.954Z,49.00
2018-03-31T09:48:31.945Z,48.90
2018-03-31T09:50:59.116Z,46.30
2018-03-31T09:53:26.353Z,48.50
2018-03-31T09:55:53.354Z,47.50
2018-03-31T09:58:21.098Z,47.50
2018-03-31T10:00:48.061Z,47.40
2018-03-31T10:03:15.806Z,48.40
2018-03-31T10:05:42.844Z,48.30
2018-03-31T10:08:09.872Z,46.20
2018-03-31T10:10:36.875Z,45.70
2018-03-31T10:13:03.863Z,46.00
2018-03-31T10:15:30.909Z,43.50
2018-03-31T10:17:57.894Z,43.50
2018-03-31T10:20:24.843Z,41.40
2018-03-31T10:22:52.657Z,42.40
2018-03-31T10:25:19.695Z,42.40
2018-03-31T10:27:46.755Z,40.90
2018-03-31T10:30:13.711Z,43.70
2018-03-31T10:32:40.747Z,44.40
2018-03-31T10:35:07.698Z,42.90
2018-03-31T10:37:34.672Z,43.90
2018-03-31T10:40:02.391Z,43.80
2018-03-31T10:42:29.652Z,43.70
2018-03-31T10:44:56.593Z,40.60
2018-03-31T10:47:23.687Z,42.00
2018-03-31T10:49:50.613Z,41.80
2018-03-31T10:52:18.447Z,39.40
2018-03-31T10:54:45.407Z,39.40
2018-03-31T10:57:12.379Z,40.60
2018-03-31T10:59:40.197Z,39.50
2018-03-31T11:02:07.244Z,39.50
2018-03-31T11:04:34.225Z,40.70
2018-03-31T11:07:02.051Z,38.50
2018-03-31T11:09:29.031Z,38.30
2018-03-31T11:11:56.767Z,39.40
2018-03-31T11:14:23.763Z,39.30
2018-03-31T11:16:50.737Z,41.10
2018-03-31T11:19:20.714Z,39.70
2018-03-31T11:21:48.520Z,40.90
2018-03-31T11:24:15.500Z,40.90
2018-03-31T11:26:43.379Z,37.70
2018-03-31T11:29:11.200Z,38.80
2018-03-31T11:31:38.162Z,38.70
2018-03-31T11:34:05.165Z,37.60
2018-03-31T11:36:32.152Z,39.50
2018-03-31T11:38:59.874Z,37.80
2018-03-31T11:41:26.896Z,37.80
2018-03-31T11:43:53.839Z,36.90
2018-03-31T11:46:20.808Z,39.40
2018-03-31T11:48:47.771Z,38.70
2018-03-31T11:51:14.822Z,39.90
2018-03-31T11:53:42.575Z,39.00
2018-03-31T11:56:09.534Z,39.00
2018-03-31T11:58:36.560Z,37.90
2018-03-31T12:01:03.522Z,37.80
2018-03-31T12:03:30.554Z,38.00
2018-03-31T12:05:57.501Z,39.60
2018-03-31T12:08:24.561Z,39.70
2018-03-31T12:10:51.528Z,39.50
2018-03-31T12:13:19.271Z,41.00
2018-03-31T12:15:46.215Z,40.90
2018-03-31T12:18:13.206Z,40.60
2018-03-31T12:20:40.157Z,37.70
2018-03-31T12:23:07.123Z,38.60
2018-03-31T12:25:34.104Z,39.30
2018-03-31T12:28:01.116Z,39.20
2018-03-31T12:30:28.162Z,40.40
2018-03-31T12:32:55.119Z,40.30
2018-03-31T12:35:22.075Z,40.30
2018-03-31T12:37:49.888Z,39.40
2018-03-31T12:40:16.954Z,39.60
2018-03-31T12:42:44.379Z,41.60
2018-03-31T12:45:11.335Z,41.90
2018-03-31T12:47:38.284Z,41.10
2018-03-31T12:50:05.286Z,40.20
2018-03-31T12:52:32.195Z,40.90
2018-03-31T12:54:59.161Z,41.20
2018-03-31T12:57:26.240Z,41.60
2018-03-31T12:59:53.230Z,41.50
2018-03-31T13:02:20.292Z,43.60
2018-03-31T13:04:47.262Z,41.90
2018-03-31T13:07:15.002Z,43.10
2018-03-31T13:09:43.568Z,41.10
2018-03-31T13:12:10.671Z,41.10
2018-03-31T13:14:37.611Z,42.40
2018-03-31T13:17:04.589Z,41.00
2018-03-31T13:19:31.660Z,41.50
2018-03-31T13:21:58.691Z,41.90
2018-03-31T13:24:25.731Z,41.00
2018-03-31T13:26:52.692Z,40.50
2018-03-31T13:29:19.834Z,41.30
2018-03-31T13:31:47.023Z,41.50
2018-03-31T13:34:14.016Z,41.60
2018-03-31T13:36:41.063Z,41.50
2018-03-31T13:39:08.030Z,41.10
2018-03-31T13:41:35.763Z,42.00
2018-03-31T13:44:02.724Z,42.80
2018-03-31T13:46:29.762Z,43.20
2018-03-31T13:48:56.800Z,44.50
2018-03-31T13:51:23.756Z,45.30
2018-03-31T13:53:50.823Z,45.10
2018-03-31T13:56:18.653Z,46.80
2018-03-31T13:58:45.677Z,46.70
2018-03-31T14:01:12.643Z,46.80
2018-03-31T14:03:39.692Z,46.00
2018-03-31T14:06:06.744Z,45.60
2018-03-31T14:08:33.786Z,46.80
2018-03-31T14:11:00.756Z,46.50
2018-03-31T14:13:28.491Z,48.20
2018-03-31T14:15:55.545Z,48.20
2018-03-31T14:18:22.487Z,48.10
2018-03-31T14:20:49.464Z,48.40
2018-03-31T14:23:17.288Z,47.60
2018-03-31T14:25:44.261Z,47.60
2018-03-31T14:28:11.381Z,47.10
2018-03-31T14:30:38.336Z,47.20
2018-03-31T14:33:05.385Z,47.80
2018-03-31T14:35:32.423Z,47.30
2018-03-31T14:37:59.368Z,48.10
2018-03-31T14:40:26.405Z,46.70
2018-03-31T14:42:54.186Z,48.90
2018-03-31T14:45:21.224Z,45.00
2018-03-31T14:47:48.283Z,46.00
2018-03-31T14:50:15.254Z,46.60
2018-03-31T14:52:43.061Z,45.10
2018-03-31T14:55:24.797Z,45.00
2018-03-31T14:57:51.713Z,44.50
2018-03-31T15:00:19.011Z,43.00
2018-03-31T15:02:45.983Z,42.70
2018-03-31T15:05:12.983Z,42.90
2018-03-31T15:07:40.796Z,41.20
2018-03-31T15:10:07.791Z,40.70
2018-03-31T15:12:35.612Z,39.60
2018-03-31T15:15:02.625Z,39.60
2018-03-31T15:17:29.634Z,38.90
2018-03-31T15:19:56.651Z,40.00
2018-03-31T15:22:23.631Z,40.10
2018-03-31T15:24:51.659Z,40.60
2018-03-31T15:27:18.807Z,40.60
2018-03-31T15:29:45.835Z,40.60
2018-03-31T15:32:12.784Z,41.40
2018-03-31T15:34:40.040Z,42.00
2018-03-31T15:37:07.025Z,41.60
2018-03-31T15:39:34.046Z,41.60
2018-03-31T15:42:01.274Z,41.90
2018-03-31T15:44:28.247Z,42.50
2018-03-31T15:46:55.354Z,42.90
2018-03-31T15:49:22.368Z,43.90
2018-03-31T15:51:50.090Z,43.50
2018-03-31T15:54:18.026Z,43.50
2018-03-31T15:56:45.148Z,43.20
2018-03-31T15:59:12.208Z,42.80
2018-03-31T16:01:39.187Z,42.30
2018-03-31T16:04:06.216Z,43.20
2018-03-31T16:06:33.179Z,43.10
2018-03-31T16:09:00.221Z,42.80
2018-03-31T16:11:27.253Z,42.90
2018-03-31T16:13:54.232Z,43.20
2018-03-31T16:16:21.273Z,43.10
2018-03-31T16:18:48.332Z,42.30
2018-03-31T16:21:15.368Z,43.20
2018-03-31T16:23:42.308Z,43.90
2018-03-31T16:26:09.317Z,46.10
2018-03-31T16:28:36.288Z,47.20
2018-03-31T16:31:03.355Z,47.90
2018-03-31T16:33:30.504Z,47.40
2018-03-31T16:35:57.464Z,47.80
2018-03-31T16:38:25.295Z,46.60
2018-03-31T16:40:52.249Z,46.60
2018-03-31T16:43:19.311Z,47.00
2018-03-31T16:45:46.360Z,47.80
2018-03-31T16:48:13.347Z,48.80
2018-03-31T16:50:40.316Z,49.00
2018-03-31T16:53:07.320Z,48.80
2018-03-31T16:55:34.321Z,48.80
2018-03-31T16:58:01.410Z,49.10
2018-03-31T17:00:28.425Z,49.60
2018-03-31T17:02:55.378Z,48.70
2018-03-31T17:05:23.205Z,48.90
2018-03-31T17:07:50.281Z,48.90
2018-03-31T17:10:17.239Z,49.30
2018-03-31T17:12:45.013Z,49.70
2018-03-31T17:15:12.124Z,49.70
2018-03-31T17:17:40.047Z,50.30
2018-03-31T17:20:07.134Z,50.10
2018-03-31T17:22:34.087Z,50.70
2018-03-31T17:25:01.180Z,51.40
2018-03-31T17:27:28.994Z,52.30
2018-03-31T17:29:56.751Z,52.40
2018-03-31T17:32:24.696Z,52.30
2018-03-31T17:34:51.762Z,52.60
2018-03-31T17:37:18.851Z,52.50
2018-03-31T17:39:46.853Z,54.80
2018-03-31T17:42:13.813Z,54.70
2018-03-31T17:44:40.825Z,55.40
2018-03-31T17:47:07.965Z,56.20
2018-03-31T17:49:34.922Z,56.60
2018-03-31T17:52:02.114Z,57.10
2018-03-31T17:54:29.430Z,57.20
2018-03-31T17:56:56.398Z,57.60
2018-03-31T17:59:23.438Z,59.20
2018-03-31T18:01:50.687Z,59.30
2018-03-31T18:04:17.642Z,59.30
2018-03-31T18:06:44.644Z,59.50
2018-03-31T18:09:11.684Z,59.70
2018-03-31T18:11:38.678Z,60.30
2018-03-31T18:14:05.641Z,60.50
2018-03-31T18:16:32.600Z,60.70
2018-03-31T18:19:00.373Z,60.80
2018-03-31T18:21:28.091Z,60.80
2018-03-31T18:23:55.160Z,60.70
2018-03-31T18:26:22.256Z,61.10
2018-03-31T18:28:49.228Z,61.30
2018-03-31T18:31:16.192Z,61.40
2018-03-31T18:33:43.935Z,61.80
2018-03-31T18:36:10.917Z,61.70
2018-03-31T18:38:39.621Z,62.10
2018-03-31T18:41:06.694Z,62.10
2018-03-31T18:43:33.654Z,63.00
2018-03-31T18:46:01.378Z,63.50
2018-03-31T18:48:28.455Z,63.70
2018-03-31T18:50:55.445Z,64.00
2018-03-31T18:53:23.280Z,64.30
2018-03-31T18:55:50.257Z,64.30
2018-03-31T18:58:17.211Z,64.50
2018-03-31T19:00:44.181Z,64.50
2018-03-31T19:03:11.155Z,65.40
2018-03-31T19:05:38.128Z,65.20
2018-03-31T19:08:05.943Z,66.00
2018-03-31T19:10:32.991Z,65.90
2018-03-31T19:12:59.959Z,65.50
2018-03-31T19:15:26.933Z,64.90
2018-03-31T19:17:53.919Z,66.00
2018-03-31T19:20:20.992Z,66.90
2018-03-31T19:22:48.040Z,67.90
2018-03-31T19:25:20.819Z,69.30
2018-03-31T19:27:47.764Z,71.30
2018-03-31T19:30:14.710Z,72.80
2018-03-31T19:32:42.444Z,74.30
2018-03-31T19:35:09.387Z,74.20
2018-03-31T19:37:36.442Z,75.20
2018-03-31T19:40:03.476Z,75.30
2018-03-31T19:42:30.443Z,75.80
2018-03-31T19:44:57.402Z,76.00
2018-03-31T19:47:25.171Z,76.70
2018-03-31T19:49:52.888Z,76.80
2018-03-31T19:52:19.941Z,76.70
2018-03-31T19:54:46.889Z,76.80
2018-03-31T19:57:14.010Z,76.90
2018-03-31T19:59:40.963Z,77.30
2018-03-31T20:02:07.928Z,77.60
2018-03-31T20:04:34.970Z,77.90
2018-03-31T20:07:01.928Z,78.30
2018-03-31T20:09:28.967Z,78.90
2018-03-31T20:11:55.918Z,79.40
2018-03-31T20:14:23.768Z,80.80
2018-03-31T20:16:50.803Z,80.20
2018-03-31T20:19:18.021Z,80.90
2018-03-31T20:21:44.989Z,80.80
2018-03-31T20:24:12.038Z,80.60
2018-03-31T20:26:39.040Z,80.40
2018-03-31T20:29:05.982Z,80.40
2018-03-31T20:31:32.955Z,80.50
2018-03-31T20:33:59.951Z,80.30
2018-03-31T20:36:27.787Z,80.10
2018-03-31T20:38:54.838Z,80.10
2018-03-31T20:41:22.088Z,80.10
2018-03-31T20:43:49.124Z,79.80
2018-03-31T20:46:16.076Z,80.10
2018-03-31T20:48:43.148Z,80.40
2018-03-31T20:51:10.881Z,80.70
2018-03-31T20:53:37.995Z,80.60
2018-03-31T20:56:05.010Z,80.60
2018-03-31T20:58:32.723Z,80.90
2018-03-31T21:00:59.799Z,80.80
2018-03-31T21:03:26.758Z,81.00
2018-03-31T21:05:54.745Z,82.50
2018-03-31T21:08:21.695Z,81.80
2018-03-31T21:10:48.668Z,82.20
2018-03-31T21:13:15.624Z,82.60
2018-03-31T21:15:42.661Z,82.80
2018-03-31T21:18:09.633Z,83.10
2018-03-31T21:20:36.672Z,83.20
2018-03-31T21:23:03.711Z,83.20
2018-03-31T21:25:30.660Z,83.10
2018-03-31T21:27:59.111Z,82.90
2018-03-31T21:30:26.076Z,82.90
2018-03-31T21:32:53.150Z,82.70
2018-03-31T21:35:20.108Z,82.70
2018-03-31T21:37:47.110Z,82.50
2018-03-31T21:40:15.053Z,82.50
2018-03-31T21:42:42.118Z,82.60
2018-03-31T21:45:09.531Z,82.70
2018-03-31T21:47:36.508Z,82.70
2018-03-31T21:50:03.560Z,82.70
2018-03-31T21:52:30.526Z,82.90
2018-03-31T21:54:57.728Z,83.30
2018-03-31T21:57:24.809Z,83.70
2018-03-31T21:59:51.772Z,83.80
2018-03-31T22:02:19.826Z,84.20
2018-03-31T22:04:46.867Z,84.20
2018-03-31T22:07:14.033Z,84.30
2018-03-31T22:09:41.768Z,84.60
2018-03-31T22:12:08.829Z,84.70
2018-03-31T22:14:41.369Z,84.80
2018-03-31T22:17:08.316Z,84.90
2018-03-31T22:19:35.405Z,85.00
2018-03-31T22:22:02.488Z,85.40
2018-03-31T22:24:29.467Z,85.50
2018-03-31T22:26:56.516Z,85.70
2018-03-31T22:29:23.565Z,85.70
2018-03-31T22:31:50.603Z,85.80
2018-03-31T22:34:17.571Z,85.90
2018-03-31T22:36:44.543Z,86.10
2018-03-31T22:39:12.366Z,86.20
2018-03-31T22:41:39.403Z,86.20
2018-03-31T22:44:06.452Z,86.20
2018-03-31T22:46:33.519Z,86.20
2018-03-31T22:49:02.076Z,86.60
2018-03-31T22:51:29.101Z,87.10
2018-03-31T22:53:56.072Z,86.70
2018-03-31T22:56:23.115Z,86.80
2018-03-31T22:58:50.168Z,86.80
2018-03-31T23:01:17.933Z,86.80
2018-03-31T23:03:44.981Z,86.80
2018-03-31T23:06:12.050Z,86.80
2018-03-31T23:08:39.772Z,87.20
2018-03-31T23:11:06.823Z,86.90
2018-03-31T23:13:33.786Z,87.10
2018-03-31T23:16:00.732Z,87.10
2018-03-31T23:18:27.762Z,87.20
2018-03-31T23:20:55.491Z,87.40
2018-03-31T23:23:22.582Z,87.30
2018-03-31T23:25:49.556Z,87.40
2018-03-31T23:28:17.859Z,87.40
2018-03-31T23:30:45.048Z,87.40
2018-03-31T23:33:12.070Z,87.70
2018-03-31T23:35:39.815Z,87.70
2018-03-31T23:38:06.780Z,87.70
2018-03-31T23:40:33.841Z,87.70
2018-03-31T23:43:00.815Z,87.80
2018-03-31T23:45:28.523Z,87.90
2018-03-31T23:47:55.489Z,87.90
2018-03-31T23:50:24.063Z,87.90
2018-03-31T23:52:51.175Z,87.90
2018-03-31T23:55:18.145Z,88.00
2018-03-31T23:57:45.197Z,87.90
